Dexter, Iowa
Current Conditions -  °F | °C
As of 7:35 AM on Saturday 20 Dec 2014 (Local Time) from KPRO Reporting Station
Haze Haze  
Wind Chill: 25°   Ceiling: 1200
Heat Index: 31°   Visibility: 4mi
Dew Point: 31°   Wind: 6mph
Humidity: 99%   Direction: 170°S
Pressure: 30.16"   Gusts: NA
Location:  41.52°N, 94.23°W
Report Text: KPRO 201335Z AUTO 17005KT 4SM BR SCT007 BKN012 OVC018 M01/M01 A3016 RMK AO2 T10061007
Loading
Personal Weather Stations






























Interactive Weather Map New forecast layout! Learn more

10-Day Weather Forecast

Advertisements
Track Severe Weather on mobile